createdAt,value
2023-02-21T00:02:15.190Z,9.87
2023-02-21T00:05:25.021Z,9.86
2023-02-21T00:08:34.645Z,9.83
2023-02-21T00:11:44.125Z,9.81
2023-02-21T00:14:54.924Z,9.82
2023-02-21T00:18:05.375Z,9.89
2023-02-21T00:21:14.990Z,9.88
2023-02-21T00:24:25.495Z,9.87
2023-02-21T00:27:24.576Z,9.87
2023-02-21T00:30:35.675Z,9.87
2023-02-21T00:33:45.185Z,9.86
2023-02-21T00:36:54.869Z,9.83
2023-02-21T00:40:04.966Z,9.80
2023-02-21T00:43:14.770Z,9.73
2023-02-21T00:46:07.199Z,9.64
2023-02-21T00:48:59.297Z,9.56
2023-02-21T00:52:08.875Z,9.48
2023-02-21T00:55:18.799Z,9.45
2023-02-21T00:58:28.605Z,9.34
2023-02-21T01:01:38.133Z,9.28
2023-02-21T01:04:48.053Z,9.25
2023-02-21T01:07:57.980Z,9.19
2023-02-21T01:11:07.780Z,9.14
2023-02-21T01:14:17.366Z,9.13
2023-02-21T01:17:26.810Z,9.12
2023-02-21T01:20:36.575Z,9.12
2023-02-21T01:23:46.458Z,9.07
2023-02-21T01:26:56.401Z,8.99
2023-02-21T01:30:05.947Z,8.93
2023-02-21T01:33:15.411Z,8.88
2023-02-21T01:36:28.045Z,8.84
2023-02-21T01:39:26.549Z,8.82
2023-02-21T01:42:37.548Z,8.82
2023-02-21T01:46:05.506Z,8.82
2023-02-21T01:49:15.937Z,8.86
2023-02-21T01:52:25.692Z,8.86
2023-02-21T01:55:35.200Z,8.81
2023-02-21T01:58:47.209Z,8.81
2023-02-21T02:02:04.504Z,8.73
2023-02-21T02:05:16.173Z,8.67
2023-02-21T02:08:25.932Z,8.65
2023-02-21T02:11:47.086Z,8.66
2023-02-21T02:14:55.794Z,8.59
2023-02-21T02:18:02.836Z,8.52
2023-02-21T02:21:23.078Z,8.47
2023-02-21T02:24:58.884Z,8.48
2023-02-21T02:28:18.821Z,8.53
2023-02-21T02:31:34.283Z,8.53
2023-02-21T02:34:48.454Z,8.49
2023-02-21T02:37:48.580Z,8.47
2023-02-21T02:40:51.352Z,8.44
2023-02-21T02:43:50.946Z,8.43
2023-02-21T02:46:44.872Z,8.47
2023-02-21T02:49:24.721Z,8.45
2023-02-21T02:52:16.848Z,8.38
2023-02-21T02:55:32.046Z,8.35
2023-02-21T02:58:26.689Z,8.34
2023-02-21T03:01:39.946Z,8.36
2023-02-21T03:04:49.944Z,8.41
2023-02-21T03:07:56.466Z,8.43
2023-02-21T03:10:55.358Z,8.47
2023-02-21T03:13:52.692Z,8.48
2023-02-21T03:16:30.870Z,8.49
2023-02-21T03:19:28.090Z,8.46
2023-02-21T03:22:24.843Z,8.44
2023-02-21T03:25:19.460Z,8.44
2023-02-21T03:28:12.735Z,8.48
2023-02-21T03:31:09.639Z,8.48
2023-02-21T03:34:01.831Z,8.48
2023-02-21T03:36:54.245Z,8.43
2023-02-21T03:39:46.383Z,8.37
2023-02-21T03:42:38.450Z,8.36
2023-02-21T03:45:30.619Z,8.37
2023-02-21T03:48:31.422Z,8.39
2023-02-21T03:51:24.485Z,8.38
2023-02-21T03:54:16.685Z,8.37
2023-02-21T03:57:08.935Z,8.34
2023-02-21T04:00:01.155Z,8.32
2023-02-21T04:02:53.237Z,8.31
2023-02-21T04:05:45.349Z,8.34
2023-02-21T04:08:37.463Z,8.32
2023-02-21T04:11:29.541Z,8.32
2023-02-21T04:14:21.750Z,8.26
2023-02-21T04:17:13.816Z,8.24
2023-02-21T04:20:06.990Z,8.24
2023-02-21T04:23:03.449Z,8.26
2023-02-21T04:25:55.782Z,8.26
2023-02-21T04:28:48.853Z,8.22
2023-02-21T04:31:41.330Z,8.23
2023-02-21T04:34:33.824Z,8.22
2023-02-21T04:37:25.881Z,8.23
2023-02-21T04:40:18.356Z,8.26
2023-02-21T04:43:10.502Z,8.25
2023-02-21T04:46:02.806Z,8.24
2023-02-21T04:48:55.223Z,8.22
2023-02-21T04:51:47.309Z,8.20
2023-02-21T04:54:39.434Z,8.21
2023-02-21T04:57:31.561Z,8.24
2023-02-21T05:00:24.024Z,8.27
2023-02-21T05:03:16.226Z,8.30
2023-02-21T05:06:08.837Z,8.28
2023-02-21T05:09:01.268Z,8.28
2023-02-21T05:11:54.098Z,8.24
2023-02-21T05:14:46.251Z,8.25
2023-02-21T05:17:38.433Z,8.28
2023-02-21T05:20:30.574Z,8.22
2023-02-21T05:23:39.276Z,8.15
2023-02-21T05:26:34.972Z,8.11
2023-02-21T05:29:27.547Z,8.14
2023-02-21T05:32:21.316Z,8.19
2023-02-21T05:35:15.069Z,8.18
2023-02-21T05:38:07.137Z,8.13
2023-02-21T05:40:59.741Z,8.12
2023-02-21T05:43:52.750Z,8.13
2023-02-21T05:46:45.973Z,8.16
2023-02-21T05:49:38.124Z,8.21
2023-02-21T05:52:30.247Z,8.22
2023-02-21T05:55:22.340Z,8.20
2023-02-21T05:57:59.479Z,8.21
2023-02-21T06:00:52.360Z,8.21
2023-02-21T06:03:44.802Z,8.23
2023-02-21T06:06:37.384Z,8.28
2023-02-21T06:09:30.923Z,8.28
2023-02-21T06:12:22.994Z,8.34
2023-02-21T06:15:15.457Z,8.36
2023-02-21T06:18:07.721Z,8.37
2023-02-21T06:20:59.812Z,8.36
2023-02-21T06:23:52.475Z,8.37
2023-02-21T06:26:45.064Z,8.40
2023-02-21T06:29:37.149Z,8.40
2023-02-21T06:32:29.437Z,8.38
2023-02-21T06:35:21.636Z,8.36
2023-02-21T06:38:13.847Z,8.37
2023-02-21T06:41:09.691Z,8.40
2023-02-21T06:44:02.367Z,8.46
2023-02-21T06:46:54.933Z,8.47
2023-02-21T06:49:47.072Z,8.47
2023-02-21T06:52:39.128Z,8.50
2023-02-21T06:55:31.195Z,8.51
2023-02-21T06:58:23.268Z,8.58
2023-02-21T07:01:15.864Z,8.64
2023-02-21T07:04:08.262Z,8.62
2023-02-21T07:07:00.390Z,8.59
2023-02-21T07:09:52.510Z,8.60
2023-02-21T07:12:44.720Z,8.63
2023-02-21T07:15:37.220Z,8.66
2023-02-21T07:18:29.368Z,8.69
2023-02-21T07:21:23.049Z,8.66
2023-02-21T07:24:15.332Z,8.69
2023-02-21T07:27:07.583Z,8.67
2023-02-21T07:29:59.922Z,8.64
2023-02-21T07:32:41.207Z,8.66
2023-02-21T07:35:33.370Z,8.72
2023-02-21T07:38:08.319Z,8.76
2023-02-21T07:41:02.908Z,8.83
2023-02-21T07:43:55.128Z,8.87
2023-02-21T07:46:47.497Z,8.91
2023-02-21T07:49:41.307Z,9.05
2023-02-21T07:52:33.629Z,9.16
2023-02-21T07:55:25.838Z,9.18
2023-02-21T07:58:19.712Z,9.16
2023-02-21T08:01:14.381Z,9.19
2023-02-21T08:04:07.221Z,9.34
2023-02-21T08:07:03.345Z,9.53
2023-02-21T08:09:55.575Z,9.68
2023-02-21T08:12:47.826Z,9.79
2023-02-21T08:15:40.099Z,9.97
2023-02-21T08:18:32.273Z,9.89
2023-02-21T08:21:24.498Z,9.84
2023-02-21T08:24:17.012Z,9.83
2023-02-21T08:27:09.212Z,9.79
2023-02-21T08:30:01.677Z,9.80
2023-02-21T08:32:54.702Z,9.81
2023-02-21T08:35:46.865Z,9.78
2023-02-21T08:38:40.186Z,9.63
2023-02-21T08:41:39.443Z,9.53
2023-02-21T08:44:31.566Z,9.51
2023-02-21T08:47:23.716Z,9.55
2023-02-21T08:50:16.384Z,9.54
2023-02-21T08:53:08.596Z,9.60
2023-02-21T08:55:49.253Z,9.76
2023-02-21T08:58:41.329Z,10.05
2023-02-21T09:01:37.505Z,10.15
2023-02-21T09:04:29.992Z,10.09
2023-02-21T09:07:23.750Z,10.07
2023-02-21T09:10:15.923Z,10.06
2023-02-21T09:13:08.010Z,10.07
2023-02-21T09:16:00.783Z,10.03
2023-02-21T09:19:01.824Z,10.32
2023-02-21T09:21:56.855Z,10.52
2023-02-21T09:24:49.011Z,12.12
2023-02-21T09:27:41.768Z,14.82
2023-02-21T09:30:33.896Z,14.82
2023-02-21T09:33:26.988Z,13.91
2023-02-21T09:36:25.017Z,13.13
2023-02-21T09:39:17.517Z,12.59
2023-02-21T09:41:50.661Z,12.28
2023-02-21T09:44:45.389Z,12.01
2023-02-21T09:47:40.094Z,12.28
2023-02-21T09:50:35.909Z,13.54
2023-02-21T09:53:31.074Z,14.59
2023-02-21T09:56:29.256Z,15.39
2023-02-21T09:59:21.517Z,14.92
2023-02-21T10:02:32.929Z,14.32
2023-02-21T10:05:40.879Z,13.64
2023-02-21T10:08:41.891Z,13.14
2023-02-21T10:11:43.904Z,13.01
2023-02-21T10:14:43.397Z,13.10
2023-02-21T10:17:42.247Z,13.01
2023-02-21T10:21:01.526Z,12.77
2023-02-21T10:23:57.881Z,12.44
2023-02-21T10:26:55.100Z,12.16
2023-02-21T10:29:52.177Z,11.95
2023-02-21T10:32:44.540Z,11.80
2023-02-21T10:35:37.411Z,11.77
2023-02-21T10:38:29.681Z,11.80
2023-02-21T10:41:22.716Z,11.82
2023-02-21T10:44:19.799Z,12.24
2023-02-21T10:47:02.650Z,12.26
2023-02-21T10:50:09.278Z,12.10
2023-02-21T10:53:01.486Z,11.93
2023-02-21T10:56:10.049Z,11.58
2023-02-21T10:59:05.909Z,11.30
2023-02-21T11:02:00.093Z,11.25
2023-02-21T11:04:55.571Z,11.63
2023-02-21T11:08:03.620Z,12.21
2023-02-21T11:10:57.395Z,13.83
2023-02-21T11:13:49.476Z,14.81
2023-02-21T11:16:41.821Z,14.16
2023-02-21T11:19:45.165Z,13.46
2023-02-21T11:22:42.919Z,12.88
2023-02-21T11:25:41.100Z,12.50
2023-02-21T11:28:37.724Z,12.23
2023-02-21T11:31:32.540Z,12.04
2023-02-21T11:34:32.583Z,11.82
2023-02-21T11:37:24.736Z,11.67
2023-02-21T11:40:26.509Z,11.55
2023-02-21T11:43:25.440Z,11.42
2023-02-21T11:46:29.099Z,11.33
2023-02-21T11:49:27.366Z,11.29
2023-02-21T11:52:26.349Z,11.36
2023-02-21T11:55:01.234Z,12.06
2023-02-21T11:58:04.687Z,12.44
2023-02-21T12:01:06.268Z,12.44
2023-02-21T12:04:25.017Z,13.07
2023-02-21T12:07:24.419Z,15.03
2023-02-21T12:10:35.174Z,14.52
2023-02-21T12:13:37.882Z,14.69
2023-02-21T12:16:43.079Z,16.15
2023-02-21T12:19:59.829Z,18.68
2023-02-21T12:23:06.462Z,20.14
2023-02-21T12:26:16.165Z,21.45
2023-02-21T12:29:17.440Z,21.40
2023-02-21T12:32:09.001Z,20.04
2023-02-21T12:35:17.385Z,18.60
2023-02-21T12:38:18.948Z,17.26
2023-02-21T12:41:28.506Z,16.60
2023-02-21T12:44:23.990Z,15.96
2023-02-21T12:47:22.266Z,15.39
2023-02-21T12:50:18.780Z,14.83
2023-02-21T12:53:17.103Z,14.32
2023-02-21T12:56:13.707Z,13.99
2023-02-21T12:59:15.470Z,13.70
2023-02-21T13:02:16.938Z,13.47
2023-02-21T13:05:14.523Z,13.25
2023-02-21T13:08:21.054Z,13.06
2023-02-21T13:11:23.020Z,12.89
2023-02-21T13:14:19.200Z,12.74
2023-02-21T13:17:16.759Z,12.59
2023-02-21T13:19:53.533Z,12.43
2023-02-21T13:23:38.072Z,12.25
2023-02-21T13:26:46.547Z,12.23
2023-02-21T13:29:42.640Z,12.39
2023-02-21T13:32:40.530Z,12.36
2023-02-21T13:35:38.067Z,12.45
2023-02-21T13:38:33.216Z,12.62
2023-02-21T13:41:30.545Z,12.72
2023-02-21T13:44:31.497Z,12.69
2023-02-21T13:47:24.931Z,12.61
2023-02-21T13:50:49.932Z,12.49
2023-02-21T13:54:10.682Z,12.33
2023-02-21T13:57:29.855Z,12.29
2023-02-21T14:00:48.434Z,12.25
2023-02-21T14:03:40.850Z,12.35
2023-02-21T14:06:36.880Z,12.33
2023-02-21T14:09:29.060Z,12.22
2023-02-21T14:12:26.189Z,12.15
2023-02-21T14:15:18.933Z,11.98
2023-02-21T14:18:20.000Z,11.91
2023-02-21T14:21:28.246Z,11.96
2023-02-21T14:24:25.603Z,11.91
2023-02-21T14:27:39.633Z,11.89
2023-02-21T14:30:35.695Z,11.79
2023-02-21T14:33:30.531Z,11.75
2023-02-21T14:36:08.964Z,11.76
2023-02-21T14:38:54.343Z,11.69
2023-02-21T14:42:00.118Z,11.56
2023-02-21T14:45:05.876Z,11.44
2023-02-21T14:48:18.291Z,11.35
2023-02-21T14:51:43.922Z,11.27
2023-02-21T14:55:14.858Z,11.18
2023-02-21T14:58:15.999Z,11.11
2023-02-21T15:01:17.589Z,11.12
2023-02-21T15:04:01.214Z,11.09
2023-02-21T15:07:18.764Z,11.07
2023-02-21T15:10:16.739Z,10.98
2023-02-21T15:13:21.619Z,10.92
2023-02-21T15:16:17.094Z,10.85
2023-02-21T15:19:20.127Z,10.79
2023-02-21T15:22:24.823Z,10.71
2023-02-21T15:25:22.126Z,10.61
2023-02-21T15:28:26.205Z,10.50
2023-02-21T15:31:18.974Z,10.46
2023-02-21T15:34:19.282Z,10.43
2023-02-21T15:37:20.678Z,10.39
2023-02-21T15:40:20.433Z,10.39
2023-02-21T15:43:23.914Z,10.37
2023-02-21T15:46:22.209Z,10.35
2023-02-21T15:49:21.116Z,10.33
2023-02-21T15:52:29.920Z,10.29
2023-02-21T15:55:32.313Z,10.27
2023-02-21T15:58:27.723Z,10.22
2023-02-21T16:01:22.844Z,10.16
2023-02-21T16:04:20.792Z,10.11
2023-02-21T16:07:22.267Z,10.07
2023-02-21T16:10:16.922Z,10.02
2023-02-21T16:13:10.337Z,10.00
2023-02-21T16:16:03.498Z,9.95
2023-02-21T16:18:59.600Z,9.90
2023-02-21T16:21:52.202Z,9.85
2023-02-21T16:24:44.386Z,9.83
2023-02-21T16:27:36.553Z,9.83
2023-02-21T16:30:30.418Z,9.86
2023-02-21T16:33:14.434Z,9.84
2023-02-21T16:36:11.118Z,9.81
2023-02-21T16:39:03.292Z,9.79
2023-02-21T16:41:55.520Z,9.77
2023-02-21T16:44:50.083Z,9.75
2023-02-21T16:47:36.058Z,9.69
2023-02-21T16:50:32.549Z,9.63
2023-02-21T16:53:25.097Z,9.61
2023-02-21T16:56:17.589Z,9.62
2023-02-21T16:59:01.083Z,9.65
2023-02-21T17:01:53.198Z,9.69
2023-02-21T17:04:45.358Z,9.74
2023-02-21T17:07:37.453Z,9.77
2023-02-21T17:10:29.858Z,9.79
2023-02-21T17:13:22.072Z,9.81
2023-02-21T17:16:14.247Z,9.86
2023-02-21T17:19:06.483Z,9.98
2023-02-21T17:22:00.338Z,10.00
2023-02-21T17:24:52.475Z,10.03
2023-02-21T17:27:44.657Z,10.07
2023-02-21T17:30:37.305Z,10.07
2023-02-21T17:33:29.477Z,10.10
2023-02-21T17:36:23.697Z,10.12
2023-02-21T17:39:16.340Z,10.12
2023-02-21T17:41:54.325Z,10.09
2023-02-21T17:44:48.217Z,10.06
2023-02-21T17:47:24.583Z,9.99
2023-02-21T17:50:17.195Z,9.90
2023-02-21T17:53:09.778Z,9.83
2023-02-21T17:56:02.145Z,9.76
2023-02-21T17:58:55.154Z,9.72
2023-02-21T18:01:47.676Z,9.65
2023-02-21T18:04:41.082Z,9.63
2023-02-21T18:07:33.983Z,9.63
2023-02-21T18:10:27.587Z,9.63
2023-02-21T18:13:23.631Z,9.62
2023-02-21T18:15:59.610Z,9.62
2023-02-21T18:18:51.807Z,9.57
2023-02-21T18:21:45.907Z,9.49
2023-02-21T18:24:22.877Z,9.44
2023-02-21T18:27:15.637Z,9.45
2023-02-21T18:30:09.389Z,9.43
2023-02-21T18:32:50.969Z,9.40
2023-02-21T18:35:43.039Z,9.43
2023-02-21T18:38:36.054Z,9.41
2023-02-21T18:41:28.510Z,9.38
2023-02-21T18:44:21.228Z,9.33
2023-02-21T18:47:16.824Z,9.29
2023-02-21T18:50:10.317Z,9.25
2023-02-21T18:53:04.097Z,9.22
2023-02-21T18:55:57.408Z,9.19
2023-02-21T18:58:50.407Z,9.14
2023-02-21T19:01:42.930Z,9.11
2023-02-21T19:04:35.206Z,9.07
2023-02-21T19:07:27.391Z,9.00
2023-02-21T19:10:22.978Z,8.94
2023-02-21T19:13:15.545Z,8.91
2023-02-21T19:16:08.510Z,8.90
2023-02-21T19:19:03.351Z,8.90
2023-02-21T19:21:55.552Z,8.87
2023-02-21T19:24:48.204Z,8.80
2023-02-21T19:27:40.547Z,8.75
2023-02-21T19:30:36.610Z,8.73
2023-02-21T19:33:28.823Z,8.72
2023-02-21T19:36:23.142Z,8.72
2023-02-21T19:39:15.447Z,8.69
2023-02-21T19:42:09.152Z,8.67
2023-02-21T19:45:01.677Z,8.62
2023-02-21T19:47:53.727Z,8.57
2023-02-21T19:50:45.855Z,8.53
2023-02-21T19:53:37.951Z,8.49
2023-02-21T19:56:30.179Z,8.44
2023-02-21T19:59:22.427Z,8.40
2023-02-21T20:02:16.029Z,8.35
2023-02-21T20:04:52.980Z,8.33
2023-02-21T20:07:45.746Z,8.30
2023-02-21T20:10:38.591Z,8.29
2023-02-21T20:13:31.002Z,8.28
2023-02-21T20:16:23.738Z,8.30
2023-02-21T20:19:16.586Z,8.35
2023-02-21T20:22:08.735Z,8.35
2023-02-21T20:25:03.571Z,8.35
2023-02-21T20:27:52.302Z,8.33
2023-02-21T20:30:44.648Z,8.28
2023-02-21T20:33:20.598Z,8.22
2023-02-21T20:35:55.259Z,8.18
2023-02-21T20:38:47.392Z,8.15
2023-02-21T20:41:39.773Z,8.13
2023-02-21T20:44:36.832Z,8.10
2023-02-21T20:47:29.668Z,8.02
2023-02-21T20:50:24.348Z,7.94
2023-02-21T20:53:17.614Z,7.87
2023-02-21T20:56:09.989Z,7.78
2023-02-21T20:58:42.419Z,7.62
2023-02-21T21:01:35.243Z,7.33
2023-02-21T21:04:29.391Z,7.19
2023-02-21T21:07:24.396Z,7.10
2023-02-21T21:10:19.065Z,7.00
2023-02-21T21:13:11.207Z,6.91
2023-02-21T21:16:03.400Z,6.79
2023-02-21T21:18:57.350Z,6.69
2023-02-21T21:21:51.509Z,6.63
2023-02-21T21:24:43.986Z,6.60
2023-02-21T21:27:34.047Z,6.61
2023-02-21T21:30:07.331Z,6.67
2023-02-21T21:33:00.558Z,6.70
2023-02-21T21:35:59.410Z,6.73
2023-02-21T21:38:51.543Z,6.73
2023-02-21T21:41:32.824Z,6.75
2023-02-21T21:44:13.772Z,6.73
2023-02-21T21:47:06.557Z,6.70
2023-02-21T21:49:59.479Z,6.68
2023-02-21T21:52:57.420Z,6.66
2023-02-21T21:55:49.623Z,6.65
2023-02-21T21:58:42.171Z,6.63
2023-02-21T22:01:34.443Z,6.63
2023-02-21T22:04:27.747Z,6.60
2023-02-21T22:07:20.598Z,6.58
2023-02-21T22:09:55.656Z,6.55
2023-02-21T22:12:30.255Z,6.51
2023-02-21T22:15:24.804Z,6.47
2023-02-21T22:18:20.780Z,6.43
2023-02-21T22:21:14.146Z,6.42
2023-02-21T22:24:09.642Z,6.39
2023-02-21T22:27:01.861Z,6.38
2023-02-21T22:29:53.998Z,6.37
2023-02-21T22:32:47.142Z,6.33
2023-02-21T22:35:40.145Z,6.35
2023-02-21T22:38:33.306Z,6.44
2023-02-21T22:41:28.498Z,6.48
2023-02-21T22:44:20.876Z,6.52
2023-02-21T22:47:13.787Z,6.56
2023-02-21T22:50:06.596Z,6.62
2023-02-21T22:53:01.337Z,6.69
2023-02-21T22:55:53.537Z,6.73
2023-02-21T22:58:46.004Z,6.74
2023-02-21T23:01:38.178Z,6.77
2023-02-21T23:04:36.621Z,6.75
2023-02-21T23:07:31.292Z,6.70
2023-02-21T23:10:25.646Z,6.66
2023-02-21T23:13:20.553Z,6.61
2023-02-21T23:16:12.640Z,6.55
2023-02-21T23:19:06.821Z,6.44
2023-02-21T23:21:57.994Z,6.36
2023-02-21T23:24:50.185Z,6.27
2023-02-21T23:27:42.961Z,6.23
2023-02-21T23:30:40.203Z,6.19
2023-02-21T23:33:34.144Z,6.13
2023-02-21T23:36:27.780Z,6.05
2023-02-21T23:39:08.887Z,5.95
2023-02-21T23:42:01.165Z,5.92
2023-02-21T23:44:53.340Z,5.93
2023-02-21T23:47:45.366Z,5.92
2023-02-21T23:50:38.542Z,5.94
2023-02-21T23:53:31.822Z,5.97
2023-02-21T23:56:23.908Z,5.98
2023-02-21T23:59:16.564Z,6.00
